createdAt,value
2022-11-16T00:03:36.560Z,6.78
2022-11-16T00:08:41.831Z,7.18
2022-11-16T00:13:44.113Z,7.40
2022-11-16T00:18:46.056Z,5.56
2022-11-16T00:23:47.960Z,2.59
2022-11-16T00:28:51.804Z,3.19
2022-11-16T00:33:53.751Z,5.89
2022-11-16T00:38:55.696Z,7.59
2022-11-16T00:43:57.809Z,8.23
2022-11-16T00:48:59.957Z,7.94
2022-11-16T00:54:02.097Z,9.55
2022-11-16T00:59:05.002Z,10.40
2022-11-16T01:04:07.468Z,10.72
2022-11-16T01:09:11.045Z,10.92
2022-11-16T01:14:13.025Z,11.24
2022-11-16T01:19:17.195Z,11.17
2022-11-16T01:24:19.200Z,10.96
2022-11-16T01:29:21.130Z,11.31
2022-11-16T01:34:29.021Z,10.59
2022-11-16T01:39:38.056Z,11.30
2022-11-16T01:44:39.944Z,8.87
2022-11-16T01:49:50.995Z,10.73
2022-11-16T01:54:56.872Z,10.95
2022-11-16T02:00:05.219Z,10.40
2022-11-16T02:05:20.394Z,10.33
2022-11-16T02:11:04.756Z,10.00
2022-11-16T02:16:06.659Z,8.36
2022-11-16T02:21:30.757Z,7.26
2022-11-16T02:26:51.604Z,7.75
2022-11-16T02:32:17.311Z,6.99
2022-11-16T02:37:22.977Z,5.92
2022-11-16T02:42:46.231Z,5.53
2022-11-16T02:47:51.863Z,6.45
2022-11-16T02:52:55.507Z,6.47
2022-11-16T02:58:07.041Z,5.73
2022-11-16T03:03:09.097Z,5.08
2022-11-16T03:08:20.528Z,5.55
2022-11-16T03:13:28.854Z,6.86
2022-11-16T03:18:31.591Z,7.34
2022-11-16T03:23:35.869Z,4.55
2022-11-16T03:28:50.992Z,6.01
2022-11-16T03:33:57.652Z,6.83
2022-11-16T03:39:05.704Z,4.10
2022-11-16T03:44:12.374Z,5.40
2022-11-16T03:49:14.830Z,5.32
2022-11-16T03:54:18.049Z,4.32
2022-11-16T03:59:20.103Z,5.95
2022-11-16T04:04:40.969Z,6.31
2022-11-16T04:10:02.624Z,5.63
2022-11-16T04:15:28.652Z,6.71
2022-11-16T04:20:49.643Z,8.32
2022-11-16T04:25:53.764Z,7.17
2022-11-16T04:31:25.731Z,7.62
2022-11-16T04:36:55.737Z,8.61
2022-11-16T04:42:15.999Z,7.72
2022-11-16T04:47:20.532Z,7.74
2022-11-16T04:52:23.027Z,7.73
2022-11-16T04:57:26.550Z,8.74
2022-11-16T05:02:29.255Z,7.96
2022-11-16T05:07:33.695Z,8.46
2022-11-16T05:12:41.649Z,8.42
2022-11-16T05:17:46.366Z,8.04
2022-11-16T05:22:54.930Z,8.82
2022-11-16T05:27:58.501Z,8.03
2022-11-16T05:33:01.408Z,7.40
2022-11-16T05:38:06.698Z,7.07
2022-11-16T05:43:13.787Z,8.02
2022-11-16T05:48:24.320Z,7.84
2022-11-16T05:53:26.702Z,7.66
2022-11-16T05:58:29.063Z,7.89
2022-11-16T06:03:32.957Z,7.03
2022-11-16T06:08:44.750Z,7.10
2022-11-16T06:13:57.715Z,7.23
2022-11-16T06:19:00.354Z,7.18
2022-11-16T06:24:03.702Z,7.52
2022-11-16T06:29:05.835Z,7.33
2022-11-16T06:34:09.769Z,7.80
2022-11-16T06:39:12.802Z,6.93
2022-11-16T06:44:15.598Z,7.15
2022-11-16T06:49:27.590Z,6.67
2022-11-16T06:54:33.686Z,7.01
2022-11-16T06:59:35.948Z,6.78
2022-11-16T07:04:38.025Z,6.90
2022-11-16T07:09:40.317Z,7.15
2022-11-16T07:14:43.295Z,7.47
2022-11-16T07:19:46.906Z,6.94
2022-11-16T07:24:49.036Z,7.19
2022-11-16T07:29:52.368Z,7.33
2022-11-16T07:35:09.469Z,7.83
2022-11-16T07:40:13.305Z,6.49
2022-11-16T07:45:15.756Z,5.86
2022-11-16T07:50:26.212Z,6.33
2022-11-16T07:55:31.990Z,6.54
2022-11-16T08:00:34.567Z,7.59
2022-11-16T08:05:46.803Z,8.04
2022-11-16T08:10:48.872Z,7.72
2022-11-16T08:15:51.116Z,7.84
2022-11-16T08:20:53.135Z,7.20
2022-11-16T08:25:59.947Z,7.69
2022-11-16T08:31:12.805Z,7.97
2022-11-16T08:36:17.544Z,8.02
2022-11-16T08:41:21.993Z,7.94
2022-11-16T08:46:25.070Z,7.70
2022-11-16T08:51:35.898Z,7.58
2022-11-16T08:56:40.780Z,7.13
2022-11-16T09:01:44.087Z,7.30
2022-11-16T09:06:46.235Z,7.91
2022-11-16T09:11:48.230Z,7.96
2022-11-16T09:16:50.258Z,8.05
2022-11-16T09:21:52.214Z,8.18
2022-11-16T09:26:57.138Z,8.52
2022-11-16T09:31:59.362Z,8.24
2022-11-16T09:37:01.502Z,8.27
2022-11-16T09:42:34.710Z,8.11
2022-11-16T09:47:49.876Z,8.88
2022-11-16T09:52:57.825Z,8.76
2022-11-16T09:58:03.439Z,8.19
2022-11-16T10:03:14.845Z,9.58
2022-11-16T10:08:21.580Z,8.92
2022-11-16T10:13:37.505Z,9.25
2022-11-16T10:18:58.771Z,9.58
2022-11-16T10:24:09.712Z,9.38
2022-11-16T10:29:36.054Z,10.03
2022-11-16T10:34:49.393Z,10.20
2022-11-16T10:39:53.371Z,9.84
2022-11-16T10:45:06.522Z,9.70
2022-11-16T10:50:32.413Z,10.04
2022-11-16T10:55:34.479Z,9.90
2022-11-16T11:00:46.851Z,10.07
2022-11-16T11:05:53.726Z,9.42
2022-11-16T11:11:03.228Z,10.12
2022-11-16T11:16:19.237Z,10.90
2022-11-16T11:21:25.412Z,11.35
2022-11-16T11:26:41.129Z,11.07
2022-11-16T11:31:46.483Z,11.66
2022-11-16T11:36:55.437Z,7.52
2022-11-16T11:42:04.169Z,5.20
2022-11-16T11:53:02.364Z,9.49
2022-11-16T11:58:06.380Z,10.07
2022-11-16T12:03:49.702Z,10.64
2022-11-16T12:09:20.852Z,10.37
2022-11-16T12:14:40.309Z,11.26
2022-11-16T12:20:03.538Z,11.27
2022-11-16T12:25:05.466Z,12.66
2022-11-16T12:30:16.534Z,11.29
2022-11-16T12:35:45.747Z,11.74
2022-11-16T12:41:21.299Z,11.51
2022-11-16T12:47:00.428Z,7.89
2022-11-16T12:52:46.608Z,5.72
2022-11-16T12:58:06.615Z,5.49
2022-11-16T13:03:31.732Z,5.83
2022-11-16T13:08:52.515Z,8.85
2022-11-16T13:14:18.013Z,9.45
2022-11-16T13:19:21.026Z,11.13
2022-11-16T13:24:41.904Z,9.39
2022-11-16T13:30:01.005Z,10.11
2022-11-16T13:35:12.004Z,10.73
2022-11-16T13:40:21.914Z,10.44
2022-11-16T13:45:25.427Z,8.75
2022-11-16T13:50:38.162Z,7.07
2022-11-16T13:55:46.467Z,8.32
2022-11-16T14:01:15.270Z,7.85
2022-11-16T14:06:20.226Z,11.69
2022-11-16T14:11:39.572Z,13.22
2022-11-16T14:16:51.398Z,9.64
2022-11-16T14:22:10.162Z,11.28
2022-11-16T14:27:17.857Z,8.18
2022-11-16T14:32:23.534Z,7.41
2022-11-16T14:37:25.438Z,8.27
2022-11-16T14:43:01.963Z,7.82
2022-11-16T14:48:14.504Z,9.24
2022-11-16T14:53:20.122Z,10.32
2022-11-16T14:58:23.483Z,7.44
2022-11-16T15:03:29.869Z,8.37
2022-11-16T15:08:45.401Z,11.94
2022-11-16T15:13:48.251Z,12.72
2022-11-16T15:18:58.349Z,13.30
2022-11-16T15:24:29.981Z,14.04
2022-11-16T15:29:24.325Z,13.96
2022-11-16T15:34:26.400Z,12.65
2022-11-16T15:39:34.446Z,14.01
2022-11-16T15:44:36.483Z,13.69
2022-11-16T15:49:41.158Z,13.57
2022-11-16T15:55:01.349Z,12.92
2022-11-16T16:00:03.810Z,12.45
2022-11-16T16:05:06.794Z,11.81
2022-11-16T16:10:19.200Z,10.88
2022-11-16T16:15:33.831Z,10.28
2022-11-16T16:20:36.142Z,10.17
2022-11-16T16:25:38.340Z,10.09
2022-11-16T16:30:40.423Z,10.12
2022-11-16T16:35:42.398Z,9.31
2022-11-16T16:40:44.436Z,10.10
2022-11-16T16:45:46.594Z,9.06
2022-11-16T16:50:48.657Z,8.53
2022-11-16T16:55:50.607Z,8.65
2022-11-16T17:00:56.903Z,9.18
2022-11-16T17:06:02.134Z,8.38
2022-11-16T17:11:05.608Z,8.10
2022-11-16T17:16:07.893Z,8.84
2022-11-16T17:21:10.732Z,9.44
2022-11-16T17:26:12.785Z,8.70
2022-11-16T17:31:20.642Z,8.85
2022-11-16T17:36:25.991Z,8.19
2022-11-16T17:41:28.107Z,7.79
2022-11-16T17:46:30.140Z,7.94
2022-11-16T17:51:32.217Z,7.92
2022-11-16T17:56:34.251Z,8.14
2022-11-16T18:01:36.265Z,8.57
2022-11-16T18:06:39.491Z,8.46
2022-11-16T18:11:41.719Z,8.83
2022-11-16T18:16:44.479Z,7.75
2022-11-16T18:21:47.062Z,8.33
2022-11-16T18:26:49.047Z,8.41
2022-11-16T18:31:51.029Z,8.21
2022-11-16T18:36:53.052Z,7.87
2022-11-16T18:41:56.032Z,8.26
2022-11-16T18:46:57.990Z,7.84
2022-11-16T18:52:12.038Z,8.28
2022-11-16T18:57:33.432Z,7.76
2022-11-16T19:02:49.696Z,8.21
2022-11-16T19:08:00.331Z,6.90
2022-11-16T19:13:02.305Z,7.60
2022-11-16T19:18:20.923Z,6.59
2022-11-16T19:23:26.716Z,7.54
2022-11-16T19:28:28.952Z,6.84
2022-11-16T19:33:30.918Z,6.99
2022-11-16T19:38:33.215Z,8.22
2022-11-16T19:43:35.681Z,8.50
2022-11-16T19:48:38.929Z,8.17
2022-11-16T19:53:41.935Z,7.99
2022-11-16T19:58:44.450Z,6.82
2022-11-16T20:03:48.325Z,7.59
2022-11-16T20:09:02.216Z,7.48
2022-11-16T20:14:08.604Z,8.31
2022-11-16T20:19:11.162Z,8.59
2022-11-16T20:24:15.292Z,8.90
2022-11-16T20:29:18.677Z,8.03
2022-11-16T20:34:22.168Z,7.93
2022-11-16T20:39:24.177Z,8.49
2022-11-16T20:44:26.141Z,6.20
2022-11-16T20:49:28.022Z,7.41
2022-11-16T20:54:29.975Z,7.43
2022-11-16T20:59:32.012Z,8.71
2022-11-16T21:04:33.931Z,8.22
2022-11-16T21:09:55.783Z,5.98
2022-11-16T21:14:57.681Z,5.63
2022-11-16T21:20:25.361Z,7.60
2022-11-16T21:25:21.651Z,6.50
2022-11-16T21:30:23.545Z,7.32
2022-11-16T21:35:27.075Z,6.94
2022-11-16T21:40:28.986Z,7.00
2022-11-16T21:45:30.939Z,7.44
2022-11-16T21:50:32.825Z,8.05
2022-11-16T21:55:35.094Z,8.90
2022-11-16T22:00:37.016Z,8.93
2022-11-16T22:05:57.716Z,9.25
2022-11-16T22:10:59.657Z,9.28
2022-11-16T22:16:05.674Z,8.95
2022-11-16T22:21:08.292Z,8.50
2022-11-16T22:26:12.916Z,9.25
2022-11-16T22:31:15.217Z,9.25
2022-11-16T22:36:17.084Z,8.10
2022-11-16T22:41:20.212Z,7.06
2022-11-16T22:46:22.210Z,7.18
2022-11-16T22:51:29.250Z,7.22
2022-11-16T22:56:33.891Z,5.94
2022-11-16T23:01:38.963Z,7.58
2022-11-16T23:06:41.243Z,5.32
2022-11-16T23:12:01.652Z,6.50
2022-11-16T23:17:04.285Z,5.84
2022-11-16T23:22:26.043Z,5.43
2022-11-16T23:27:37.079Z,6.07
2022-11-16T23:32:39.072Z,5.93
2022-11-16T23:38:07.182Z,5.73
2022-11-16T23:43:45.944Z,3.04
2022-11-16T23:48:47.832Z,4.63
2022-11-16T23:53:51.871Z,5.10
2022-11-16T23:58:57.520Z,5.43
